Time;durP1;ratioP1;P1;durP2;ratioP2;P2;SDS_P1;SDS_P2;PMS_P1;PMS_P2;Temp;Humidity;BMP_temperature;BMP_pressure;BME280_temperature;BME280_humidity;BME280_pressure;Samples;Min_cycle;Max_cycle;Signal;HPM_P1;HPM_P2
2022/04/05 00:00:02;;;;;;;6.53;1.38;;;6.60;99.90;;;;;;5059435;28;20524;-76
2022/04/05 00:02:28;;;;;;;2.65;1.42;;;6.60;99.90;;;;;;5077163;28;20052;-75
2022/04/05 00:04:53;;;;;;;2.97;1.38;;;6.60;99.90;;;;;;5026201;28;20055;-77
2022/04/05 00:07:19;;;;;;;4.43;1.27;;;6.60;99.90;;;;;;5027558;28;20057;-78
2022/04/05 00:09:45;;;;;;;6.45;1.50;;;6.60;99.90;;;;;;5060066;28;20044;-76
2022/04/05 00:12:10;;;;;;;4.10;1.25;;;6.60;99.90;;;;;;5059794;28;20515;-78
2022/04/05 00:14:36;;;;;;;4.72;1.17;;;6.60;99.90;;;;;;5060436;28;20071;-78
2022/04/05 00:17:05;;;;;;;2.13;1.20;;;6.60;99.90;;;;;;5059351;28;20081;-78
2022/04/05 00:19:31;;;;;;;2.80;1.15;;;6.60;99.90;;;;;;5043896;28;20045;-76
2022/04/05 00:21:57;;;;;;;6.90;1.70;;;6.60;99.90;;;;;;5058933;28;20077;-79
2022/04/05 00:24:23;;;;;;;4.20;1.27;;;6.60;99.90;;;;;;5043666;28;20052;-77
2022/04/05 00:26:48;;;;;;;5.25;1.40;;;6.70;99.90;;;;;;5042992;28;20053;-77
2022/04/05 00:29:14;;;;;;;5.65;1.55;;;6.60;99.90;;;;;;5059114;28;20052;-77
2022/04/05 00:31:40;;;;;;;3.85;1.30;;;6.60;99.90;;;;;;5060009;28;20075;-77
2022/04/05 00:34:05;;;;;;;5.68;1.17;;;6.60;99.90;;;;;;5026027;28;20048;-76
2022/04/05 00:36:31;;;;;;;10.35;2.70;;;6.90;99.90;;;;;;5027145;28;20091;-77
2022/04/05 00:38:57;;;;;;;4.95;1.30;;;6.60;99.90;;;;;;5026491;28;20045;-78
2022/04/05 00:41:23;;;;;;;5.20;1.45;;;6.50;99.90;;;;;;5026915;28;20101;-77
2022/04/05 00:43:48;;;;;;;4.70;1.75;;;6.50;99.90;;;;;;5060927;28;20054;-78
2022/04/05 00:46:14;;;;;;;3.17;1.25;;;6.50;99.90;;;;;;5042428;28;20053;-78
2022/04/05 00:48:52;;;;;;;2.30;0.82;;;6.50;99.90;;;;;;5043424;28;20140;-78
2022/04/05 00:51:19;;;;;;;3.38;2.00;;;6.50;99.90;;;;;;5058449;28;20041;-78
2022/04/05 00:53:51;;;;;;;5.15;1.27;;;6.50;99.90;;;;;;5043224;28;20045;-77
2022/04/05 00:56:19;;;;;;;2.10;1.00;;;6.50;99.90;;;;;;5041146;28;20052;-78
2022/04/05 00:58:52;;;;;;;3.42;1.00;;;6.50;99.90;;;;;;5059356;28;20045;-77
2022/04/05 01:01:19;;;;;;;3.00;1.17;;;6.50;99.90;;;;;;5042581;28;20060;-75
2022/04/05 01:03:50;;;;;;;3.95;1.20;;;6.40;99.90;;;;;;5042150;28;20413;-75
2022/04/05 01:06:19;;;;;;;4.55;1.30;;;6.40;99.90;;;;;;5042893;28;20041;-78
2022/04/05 01:08:48;;;;;;;5.90;1.20;;;6.40;99.90;;;;;;5058361;28;20175;-78
2022/04/05 01:11:14;;;;;;;6.20;1.20;;;6.40;99.90;;;;;;5043320;28;20049;-76
2022/04/05 01:13:40;;;;;;;1.85;0.85;;;6.40;99.90;;;;;;5042237;28;20059;-78
2022/04/05 01:16:07;;;;;;;2.35;1.05;;;6.40;99.90;;;;;;5060495;28;20049;-78
2022/04/05 01:18:34;;;;;;;1.08;0.60;;;6.40;99.90;;;;;;5042436;28;20047;-75
2022/04/05 01:21:00;;;;;;;4.43;1.52;;;6.40;99.90;;;;;;5041198;28;20045;-79
2022/04/05 01:23:26;;;;;;;5.55;1.10;;;6.30;99.90;;;;;;5026118;28;20049;-77
2022/04/05 01:25:52;;;;;;;3.65;0.88;;;6.30;99.90;;;;;;5025402;28;20064;-77
2022/04/05 01:28:19;;;;;;;2.65;0.70;;;6.30;99.90;;;;;;5059040;28;20045;-78
2022/04/05 01:30:45;;;;;;;4.45;0.85;;;6.30;99.90;;;;;;5041772;28;20049;-78
2022/04/05 01:33:11;;;;;;;2.83;1.00;;;6.30;99.90;;;;;;5058565;28;20074;-78
2022/04/05 01:35:37;;;;;;;1.77;1.00;;;6.30;99.90;;;;;;5041888;28;20351;-78
2022/04/05 01:38:03;;;;;;;1.65;0.77;;;6.40;99.90;;;;;;5041604;28;20045;-78
2022/04/05 01:40:29;;;;;;;3.30;1.55;;;6.20;99.90;;;;;;5042269;28;20052;-77
2022/04/05 01:42:55;;;;;;;2.38;0.70;;;6.40;99.90;;;;;;5057867;28;20051;-77
2022/04/05 01:45:21;;;;;;;2.72;0.90;;;6.20;99.90;;;;;;5058711;28;20091;-77
2022/04/05 01:47:48;;;;;;;3.42;1.10;;;6.20;99.90;;;;;;5041592;28;20055;-78
2022/04/05 01:50:14;;;;;;;2.33;1.13;;;6.20;99.90;;;;;;5074587;28;20064;-77
2022/04/05 01:52:40;;;;;;;5.55;1.30;;;6.20;99.90;;;;;;5058003;28;20060;-78
2022/04/05 01:55:07;;;;;;;2.25;0.90;;;6.20;99.90;;;;;;5057636;28;20044;-78
2022/04/05 01:57:33;;;;;;;3.10;1.10;;;6.20;99.90;;;;;;5058546;28;20047;-77
2022/04/05 01:59:59;;;;;;;4.07;1.00;;;6.20;99.90;;;;;;5057237;28;20564;-79
2022/04/05 02:02:25;;;;;;;5.65;1.15;;;6.10;99.90;;;;;;5058448;28;20539;-79
2022/04/05 02:04:51;;;;;;;2.50;0.88;;;6.20;99.90;;;;;;5040878;28;20045;-78
2022/04/05 02:07:18;;;;;;;2.88;1.20;;;6.10;99.90;;;;;;5041384;28;20045;-77
2022/04/05 02:09:47;;;;;;;4.93;0.90;;;6.10;99.90;;;;;;5057410;28;20056;-77
2022/04/05 02:12:13;;;;;;;6.20;1.10;;;6.30;99.90;;;;;;5057142;28;20040;-78
2022/04/05 02:14:40;;;;;;;5.75;1.13;;;6.30;99.90;;;;;;5041545;28;20061;-80
2022/04/05 02:17:07;;;;;;;2.47;0.90;;;6.10;99.90;;;;;;5040311;28;20174;-78
2022/04/05 02:19:34;;;;;;;3.17;1.20;;;6.10;99.90;;;;;;5041783;28;20428;-77
2022/04/05 02:21:59;;;;;;;1.85;0.80;;;6.10;99.90;;;;;;5040152;28;20139;-76
2022/04/05 02:24:25;;;;;;;4.45;2.05;;;6.10;99.90;;;;;;5057841;28;20083;-78
2022/04/05 02:26:51;;;;;;;2.67;0.90;;;6.10;99.90;;;;;;5041025;28;20056;-79
2022/04/05 02:29:17;;;;;;;4.85;0.90;;;6.10;99.90;;;;;;5056699;28;20060;-81
2022/04/05 02:31:43;;;;;;;3.70;1.10;;;5.50;99.90;;;;;;5024876;28;20132;-79
2022/04/05 02:34:09;;;;;;;3.17;0.82;;;6.10;99.90;;;;;;5056261;28;20041;-77
2022/04/05 02:36:35;;;;;;;6.18;1.15;;;6.10;99.90;;;;;;5058085;28;20041;-78
2022/04/05 02:39:01;;;;;;;2.47;0.95;;;6.10;99.90;;;;;;5040433;28;20044;-78
2022/04/05 02:41:27;;;;;;;4.47;1.20;;;6.60;99.90;;;;;;5041270;28;20070;-79
2022/04/05 02:43:53;;;;;;;4.22;1.25;;;6.20;99.90;;;;;;5057382;28;20444;-78
2022/04/05 02:46:19;;;;;;;4.45;1.08;;;6.10;99.90;;;;;;5040148;28;20606;-77
2022/04/05 02:48:46;;;;;;;3.58;1.10;;;6.10;99.90;;;;;;5040983;28;20523;-78
2022/04/05 02:51:15;;;;;;;4.47;1.10;;;6.60;99.90;;;;;;5039525;28;20037;-78
2022/04/05 02:53:42;;;;;;;2.65;0.98;;;6.20;99.90;;;;;;5041114;28;20104;-78
2022/04/05 02:56:09;;;;;;;4.15;1.20;;;5.90;99.90;;;;;;5039998;28;20063;-79
2022/04/05 02:58:37;;;;;;;3.72;1.00;;;6.10;99.90;;;;;;5040848;28;20049;-78
2022/04/05 03:01:04;;;;;;;2.95;1.02;;;6.10;99.90;;;;;;5057091;28;20049;-80
2022/04/05 03:03:30;;;;;;;3.28;1.20;;;6.20;99.90;;;;;;5040246;28;20056;-78
2022/04/05 03:05:56;;;;;;;3.08;1.27;;;6.20;99.90;;;;;;5057342;28;20052;-78
2022/04/05 03:08:22;;;;;;;4.40;1.40;;;6.20;99.90;;;;;;5055660;28;20486;-78
2022/04/05 03:10:49;;;;;;;2.60;1.42;;;6.20;99.90;;;;;;5040374;28;20049;-78
2022/04/05 03:13:15;;;;;;;6.00;1.90;;;6.50;99.90;;;;;;5039764;28;20443;-79
2022/04/05 03:15:40;;;;;;;4.90;1.77;;;6.30;99.90;;;;;;5039611;28;20104;-78
2022/04/05 03:18:06;;;;;;;5.45;2.05;;;6.20;99.90;;;;;;5055417;28;20072;-78
2022/04/05 03:20:32;;;;;;;13.52;2.95;;;6.30;99.90;;;;;;5038411;28;20052;-78
2022/04/05 03:23:00;;;;;;;4.65;1.70;;;6.40;99.90;;;;;;5039810;28;20110;-79
2022/04/05 03:25:27;;;;;;;4.68;1.63;;;6.20;99.90;;;;;;5038637;28;20052;-78
2022/04/05 03:27:53;;;;;;;5.15;1.48;;;6.20;99.90;;;;;;5056852;28;20477;-77
2022/04/05 03:30:21;;;;;;;5.47;1.73;;;6.20;99.90;;;;;;5039194;28;20494;-76
2022/04/05 03:32:47;;;;;;;5.15;1.70;;;6.20;99.90;;;;;;5056779;28;20037;-78
2022/04/05 03:35:13;;;;;;;6.72;2.70;;;6.20;99.90;;;;;;5039864;28;20106;-80
2022/04/05 03:37:39;;;;;;;3.58;1.75;;;6.20;99.90;;;;;;5023377;28;20045;-77
2022/04/05 03:40:06;;;;;;;3.90;1.23;;;6.20;99.90;;;;;;5056789;28;20041;-78
2022/04/05 03:42:32;;;;;;;6.32;1.90;;;6.20;99.90;;;;;;5038835;28;20040;-79
2022/04/05 03:44:59;;;;;;;9.18;2.35;;;6.20;99.90;;;;;;5040210;28;20056;-77
2022/04/05 03:47:26;;;;;;;6.15;1.80;;;6.20;99.90;;;;;;5039240;28;20079;-78
2022/04/05 03:49:52;;;;;;;2.95;1.60;;;6.20;99.90;;;;;;5024017;28;20715;-77
2022/04/05 03:52:17;;;;;;;4.45;1.60;;;6.20;99.90;;;;;;5039431;28;20045;-76
2022/04/05 03:54:43;;;;;;;4.13;1.65;;;6.20;99.90;;;;;;5040166;28;20079;-78
2022/04/05 03:57:09;;;;;;;5.80;1.27;;;6.30;99.90;;;;;;5056864;28;20072;-77
2022/04/05 03:59:34;;;;;;;3.67;1.20;;;6.20;99.90;;;;;;5039141;28;20084;-77
2022/04/05 04:02:00;;;;;;;5.60;1.75;;;6.20;99.90;;;;;;5023527;28;20688;-80
2022/04/05 04:04:26;;;;;;;3.70;1.40;;;6.20;99.90;;;;;;5055802;28;20042;-79
2022/04/05 04:06:52;;;;;;;3.70;1.42;;;6.20;99.90;;;;;;5040067;28;20179;-79
2022/04/05 04:09:17;;;;;;;3.80;1.40;;;6.20;99.90;;;;;;5023076;28;20044;-79
2022/04/05 04:11:44;;;;;;;6.68;1.55;;;6.20;99.90;;;;;;5039737;28;20045;-77
2022/04/05 04:14:11;;;;;;;4.82;1.60;;;6.20;99.90;;;;;;5039617;28;20532;-77
2022/04/05 04:16:37;;;;;;;4.05;1.63;;;6.20;99.90;;;;;;5038665;28;20059;-78
2022/04/05 04:19:03;;;;;;;4.93;1.58;;;6.20;99.90;;;;;;5056510;28;20484;-78
2022/04/05 04:21:29;;;;;;;4.55;1.60;;;6.20;99.90;;;;;;5054774;28;20096;-76
2022/04/05 04:23:55;;;;;;;5.05;1.80;;;6.20;99.90;;;;;;5056231;28;20053;-77
2022/04/05 04:26:21;;;;;;;5.43;1.40;;;6.10;99.90;;;;;;5039175;28;20485;-77
2022/04/05 04:28:50;;;;;;;3.92;2.17;;;6.20;99.90;;;;;;5039408;28;20570;-78
2022/04/05 04:31:16;;;;;;;4.75;2.17;;;6.10;99.90;;;;;;5060143;28;20051;-77
2022/04/05 04:33:42;;;;;;;5.55;2.00;;;6.10;99.90;;;;;;5059024;28;20132;-78
2022/04/05 04:36:08;;;;;;;5.85;1.63;;;6.20;99.90;;;;;;5060183;28;20045;-77
2022/04/05 04:38:34;;;;;;;4.45;2.40;;;6.10;99.90;;;;;;5042620;28;20041;-77
2022/04/05 04:40:59;;;;;;;5.97;1.80;;;6.10;99.90;;;;;;5043100;28;20060;-76
2022/04/05 04:43:27;;;;;;;9.30;1.88;;;6.10;99.90;;;;;;5042598;28;20060;-77
2022/04/05 04:45:53;;;;;;;4.80;1.73;;;6.20;99.90;;;;;;5059314;28;20049;-78
2022/04/05 04:48:20;;;;;;;5.70;2.20;;;6.20;99.90;;;;;;5059420;28;20055;-77
2022/04/05 04:50:47;;;;;;;5.28;1.50;;;6.10;99.90;;;;;;5041181;28;20053;-79
2022/04/05 04:53:13;;;;;;;10.13;2.60;;;6.10;99.90;;;;;;5042228;28;20212;-77
2022/04/05 04:55:39;;;;;;;6.28;1.98;;;6.10;99.90;;;;;;5041786;28;20045;-77
2022/04/05 04:58:05;;;;;;;6.72;2.00;;;6.10;99.90;;;;;;5059514;28;20056;-77
2022/04/05 05:00:31;;;;;;;5.38;1.88;;;6.10;99.90;;;;;;5042226;28;20053;-77
2022/04/05 05:02:57;;;;;;;5.93;2.00;;;6.10;99.90;;;;;;5059609;28;20057;-76
2022/04/05 05:05:23;;;;;;;5.07;1.90;;;6.10;99.90;;;;;;5042728;28;20048;-77
2022/04/05 05:07:50;;;;;;;6.65;2.10;;;6.10;99.90;;;;;;5042029;28;20055;-77
2022/04/05 05:10:17;;;;;;;6.28;1.92;;;6.20;99.90;;;;;;5059689;28;20049;-78
2022/04/05 05:12:44;;;;;;;7.05;2.67;;;6.10;99.90;;;;;;5058041;28;20052;-76
2022/04/05 05:15:14;;;;;;;4.72;1.95;;;6.10;99.90;;;;;;5042311;28;20249;-77
2022/04/05 05:17:39;;;;;;;5.43;2.22;;;6.10;99.90;;;;;;5058622;28;20110;-76
2022/04/05 05:20:06;;;;;;;4.90;2.10;;;6.10;99.90;;;;;;5059109;28;20497;-77
2022/04/05 05:22:32;;;;;;;4.88;2.05;;;6.10;99.90;;;;;;5058224;28;20044;-77
2022/04/05 05:24:58;;;;;;;11.02;2.92;;;6.10;99.90;;;;;;5058587;28;20049;-78
2022/04/05 05:27:24;;;;;;;4.10;2.45;;;6.10;99.90;;;;;;5058680;28;20413;-77
2022/04/05 05:29:49;;;;;;;7.15;2.53;;;6.10;99.90;;;;;;5057611;28;20064;-78
2022/04/05 05:32:15;;;;;;;9.05;2.72;;;6.10;99.90;;;;;;5059030;28;20084;-78
2022/04/05 05:34:41;;;;;;;6.00;2.00;;;6.10;99.90;;;;;;5059571;28;20045;-77
2022/04/05 05:37:08;;;;;;;4.30;2.03;;;6.10;99.90;;;;;;5042130;28;20119;-77
2022/04/05 05:39:35;;;;;;;11.43;3.33;;;6.20;99.90;;;;;;5042009;28;20084;-78
2022/04/05 05:42:00;;;;;;;8.18;2.15;;;6.20;99.90;;;;;;5041114;28;20108;-78
2022/04/05 05:44:26;;;;;;;5.80;2.25;;;6.20;99.90;;;;;;5042066;28;20068;-78
2022/04/05 05:46:52;;;;;;;8.05;2.67;;;6.20;99.90;;;;;;5040955;28;20385;-78
2022/04/05 05:49:18;;;;;;;4.80;2.00;;;6.30;99.90;;;;;;5058648;28;20112;-79
2022/04/05 05:51:43;;;;;;;5.07;2.10;;;6.30;99.90;;;;;;5023722;28;20041;-78
2022/04/05 05:54:09;;;;;;;6.60;3.35;;;6.30;99.90;;;;;;5042338;28;20111;-77
2022/04/05 05:56:35;;;;;;;6.28;2.33;;;6.30;99.90;;;;;;5041636;28;20080;-78
2022/04/05 05:59:01;;;;;;;7.05;2.55;;;6.30;99.90;;;;;;5041605;28;20148;-79
2022/04/05 06:01:26;;;;;;;7.10;2.65;;;6.40;99.90;;;;;;5026199;28;20049;-78
2022/04/05 06:03:52;;;;;;;5.07;2.00;;;6.40;99.90;;;;;;5057960;28;20076;-79
2022/04/05 06:06:18;;;;;;;5.63;2.20;;;6.40;99.90;;;;;;5041965;28;20413;-80
2022/04/05 06:08:44;;;;;;;6.72;2.45;;;6.50;99.90;;;;;;5051941;28;20048;-78
2022/04/05 06:11:10;;;;;;;8.30;2.40;;;6.40;99.90;;;;;;5050002;28;20105;-77
2022/04/05 06:13:36;;;;;;;10.60;2.67;;;7.10;99.90;;;;;;5057063;28;20043;-77
2022/04/05 06:16:03;;;;;;;6.75;2.65;;;6.50;99.90;;;;;;5023682;28;20257;-79
2022/04/05 06:18:29;;;;;;;7.72;2.90;;;6.50;99.90;;;;;;5040199;28;20075;-79
2022/04/05 06:20:55;;;;;;;5.57;2.50;;;6.50;99.90;;;;;;5090090;28;20037;-78
2022/04/05 06:23:21;;;;;;;6.28;2.00;;;6.50;99.90;;;;;;5057611;28;20059;-80
2022/04/05 06:25:46;;;;;;;5.50;2.15;;;6.60;99.90;;;;;;5023514;28;20056;-78
2022/04/05 06:28:15;;;;;;;5.10;2.70;;;6.50;99.90;;;;;;5058082;28;20060;-80
2022/04/05 06:30:41;;;;;;;5.75;2.05;;;6.60;99.90;;;;;;5039829;28;20048;-79
2022/04/05 06:33:12;;;;;;;11.57;2.50;;;6.60;99.90;;;;;;5040997;28;20041;-78
2022/04/05 06:35:40;;;;;;;5.50;2.13;;;6.60;99.90;;;;;;5041111;28;20060;-77
2022/04/05 06:38:06;;;;;;;6.93;2.15;;;6.60;99.90;;;;;;5056662;28;20100;-78
2022/04/05 06:40:34;;;;;;;6.30;2.38;;;6.60;99.90;;;;;;5040808;28;20045;-78
2022/04/05 06:42:59;;;;;;;3.78;1.90;;;6.60;99.90;;;;;;5039937;28;20088;-78
2022/04/05 06:45:26;;;;;;;5.88;2.22;;;6.70;99.90;;;;;;5040955;28;20045;-78
2022/04/05 06:47:52;;;;;;;4.53;2.30;;;6.70;99.90;;;;;;5040272;28;20033;-77
2022/04/05 06:50:24;;;;;;;3.20;1.55;;;6.70;99.90;;;;;;5056631;28;20056;-78
2022/04/05 06:52:53;;;;;;;5.10;1.98;;;7.40;99.90;;;;;;5040233;28;20108;-77
2022/04/05 06:55:18;;;;;;;4.95;1.60;;;6.80;99.90;;;;;;5056122;28;20443;-78
2022/04/05 06:57:44;;;;;;;3.80;1.42;;;6.70;99.90;;;;;;5040752;28;20060;-78
2022/04/05 07:00:12;;;;;;;6.82;2.00;;;6.70;99.90;;;;;;5039337;28;20112;-78
2022/04/05 07:02:39;;;;;;;7.47;1.77;;;6.70;99.90;;;;;;5040786;28;20045;-78
2022/04/05 07:05:06;;;;;;;5.38;1.65;;;6.80;99.90;;;;;;5040295;28;20045;-77
2022/04/05 07:07:31;;;;;;;5.18;1.58;;;6.80;99.90;;;;;;5039495;28;20061;-79
2022/04/05 07:09:57;;;;;;;6.35;1.52;;;6.80;99.90;;;;;;5054957;28;20103;-77
2022/04/05 07:12:23;;;;;;;2.65;1.27;;;6.90;99.90;;;;;;5039371;28;20048;-78
2022/04/05 07:14:51;;;;;;;5.88;1.38;;;6.90;99.90;;;;;;5056592;28;20057;-78
2022/04/05 07:17:17;;;;;;;3.35;1.20;;;7.00;99.90;;;;;;5056157;28;20081;-77
2022/04/05 07:19:43;;;;;;;3.60;1.25;;;7.00;99.90;;;;;;5023895;28;20045;-78
2022/04/05 07:22:08;;;;;;;4.80;1.20;;;7.10;99.90;;;;;;5038960;28;20095;-78
2022/04/05 07:24:34;;;;;;;4.10;1.67;;;7.10;99.90;;;;;;5040334;28;20079;-77
2022/04/05 07:27:00;;;;;;;6.72;2.50;;;7.10;99.90;;;;;;5040309;28;20051;-77
2022/04/05 07:29:26;;;;;;;3.38;1.15;;;7.10;99.90;;;;;;5038670;28;20512;-79
2022/04/05 07:31:52;;;;;;;6.72;1.30;;;7.10;99.90;;;;;;5056740;28;20047;-78
2022/04/05 07:34:17;;;;;;;4.65;1.30;;;7.10;99.90;;;;;;5055781;28;20477;-79
2022/04/05 07:36:43;;;;;;;4.80;1.27;;;7.20;99.90;;;;;;5023585;28;20037;-78
2022/04/05 07:39:09;;;;;;;5.78;1.52;;;7.20;99.90;;;;;;5022874;28;20653;-79
2022/04/05 07:41:35;;;;;;;4.30;1.30;;;7.20;99.90;;;;;;5039897;28;20063;-78
2022/04/05 07:44:01;;;;;;;4.60;1.23;;;7.20;99.90;;;;;;5039516;28;20041;-78
2022/04/05 07:46:27;;;;;;;5.70;1.50;;;7.20;99.90;;;;;;5038786;28;20041;-79
2022/04/05 07:48:53;;;;;;;6.70;1.63;;;7.40;99.90;;;;;;5036747;28;20076;-77
2022/04/05 07:51:19;;;;;;;1.88;0.82;;;7.30;99.90;;;;;;5034905;28;20042;-77
2022/04/05 07:53:45;;;;;;;3.38;1.45;;;7.30;99.90;;;;;;5055523;28;20077;-78
2022/04/05 07:56:13;;;;;;;3.50;1.13;;;7.40;99.90;;;;;;5059210;28;20045;-76
2022/04/05 07:58:43;;;;;;;3.88;0.93;;;7.40;99.90;;;;;;5075765;28;20104;-77
2022/04/05 08:01:10;;;;;;;5.07;1.20;;;7.50;99.90;;;;;;5049776;28;20048;-78
2022/04/05 08:03:36;;;;;;;3.60;0.90;;;7.50;99.90;;;;;;5055474;28;20049;-78
2022/04/05 08:06:02;;;;;;;3.30;1.58;;;7.60;99.90;;;;;;5042117;28;20227;-77
2022/04/05 08:08:29;;;;;;;3.05;1.05;;;7.60;99.90;;;;;;5059255;28;20524;-77
2022/04/05 08:10:55;;;;;;;2.75;1.10;;;7.60;99.90;;;;;;5027377;28;20040;-77
2022/04/05 08:13:21;;;;;;;3.17;1.40;;;7.50;99.90;;;;;;5042240;28;20041;-76
2022/04/05 08:15:47;;;;;;;4.65;1.17;;;7.50;99.90;;;;;;5061058;28;20068;-77
2022/04/05 08:18:13;;;;;;;4.95;1.05;;;7.50;99.90;;;;;;5043363;28;20045;-77
2022/04/05 08:20:41;;;;;;;2.47;1.30;;;7.50;99.90;;;;;;5041179;28;20052;-77
2022/04/05 08:23:11;;;;;;;3.13;0.93;;;7.50;99.90;;;;;;5042823;28;20037;-78
2022/04/05 08:25:37;;;;;;;2.63;1.00;;;7.50;99.90;;;;;;5057895;28;20045;-79
2022/04/05 08:28:04;;;;;;;2.92;1.00;;;7.50;99.90;;;;;;5042391;28;20064;-79
2022/04/05 08:30:30;;;;;;;6.22;2.17;;;7.50;99.90;;;;;;5041788;28;20402;-77
2022/04/05 08:32:56;;;;;;;4.60;1.10;;;7.50;99.90;;;;;;5043120;28;20041;-77
2022/04/05 08:35:24;;;;;;;3.15;1.13;;;7.50;99.90;;;;;;5058902;28;20045;-78
2022/04/05 08:37:52;;;;;;;5.00;1.35;;;7.50;99.90;;;;;;5025806;28;20053;-78
2022/04/05 08:40:20;;;;;;;3.05;0.82;;;7.60;99.90;;;;;;5042847;28;20476;-77
2022/04/05 08:42:55;;;;;;;4.53;1.30;;;7.70;99.90;;;;;;5058093;28;20443;-77
2022/04/05 08:45:22;;;;;;;2.90;0.70;;;7.80;99.90;;;;;;5043042;28;20654;-78
2022/04/05 08:47:56;;;;;;;3.05;1.00;;;7.80;99.90;;;;;;5059183;28;20491;-78
2022/04/05 08:50:32;;;;;;;2.65;0.90;;;7.90;99.90;;;;;;5058836;28;20412;-78
2022/04/05 08:53:00;;;;;;;2.08;0.80;;;8.00;99.90;;;;;;5042713;28;20447;-77
2022/04/05 08:55:26;;;;;;;2.33;1.08;;;7.90;99.90;;;;;;5041924;28;20044;-78
2022/04/05 08:57:52;;;;;;;2.90;1.00;;;7.90;99.90;;;;;;5042555;28;20064;-77
2022/04/05 09:00:19;;;;;;;2.63;0.90;;;7.90;99.90;;;;;;5041593;28;20122;-76
2022/04/05 09:02:59;;;;;;;2.83;0.90;;;7.80;99.90;;;;;;5042230;28;20457;-77
2022/04/05 09:05:36;;;;;;;1.52;0.80;;;7.80;99.90;;;;;;5058727;28;20045;-76
2022/04/05 09:08:11;;;;;;;2.40;1.13;;;7.80;99.90;;;;;;5057522;28;20056;-78
2022/04/05 09:10:37;;;;;;;2.87;0.80;;;7.80;99.90;;;;;;5060292;28;20412;-77
2022/04/05 09:13:03;;;;;;;3.03;0.90;;;7.90;99.90;;;;;;5057724;28;20071;-76
2022/04/05 09:15:29;;;;;;;3.10;0.98;;;7.90;99.90;;;;;;5025888;28;20106;-76
2022/04/05 09:17:55;;;;;;;4.20;1.17;;;7.90;99.90;;;;;;5040625;28;20077;-77
2022/04/05 09:20:24;;;;;;;1.92;1.00;;;7.90;99.90;;;;;;5057245;28;20517;-77
2022/04/05 09:22:51;;;;;;;3.17;1.27;;;7.90;99.90;;;;;;5057176;28;20049;-76
2022/04/05 09:25:17;;;;;;;3.88;1.05;;;7.90;99.90;;;;;;5040860;28;20070;-76
2022/04/05 09:27:50;;;;;;;3.95;1.10;;;7.90;99.90;;;;;;5041849;28;20105;-76
2022/04/05 09:30:18;;;;;;;1.88;0.90;;;7.90;99.90;;;;;;5044807;28;20053;-75
2022/04/05 09:32:47;;;;;;;1.90;1.05;;;7.90;99.90;;;;;;5061830;28;20149;-76
2022/04/05 09:35:15;;;;;;;2.55;1.00;;;7.90;99.90;;;;;;5041857;28;20029;-75
2022/04/05 09:37:41;;;;;;;2.00;0.95;;;7.90;99.90;;;;;;5057602;28;20049;-76
2022/04/05 09:40:34;;;;;;;2.42;1.10;;;7.90;99.90;;;;;;5041889;28;20033;-75
2022/04/05 09:43:12;;;;;;;2.95;1.17;;;7.90;99.90;;;;;;5036521;28;20056;-76
2022/04/05 09:45:53;;;;;;;3.30;1.50;;;7.90;99.90;;;;;;5049023;28;20045;-75
2022/04/05 09:48:25;;;;;;;2.58;1.20;;;7.90;99.90;;;;;;5075020;28;20059;-74
2022/04/05 09:51:17;;;;;;;3.10;1.38;;;7.90;99.90;;;;;;5056470;28;20064;-75
2022/04/05 09:53:43;;;;;;;3.85;1.77;;;7.80;99.90;;;;;;5039855;28;20053;-75
2022/04/05 09:56:10;;;;;;;2.50;1.30;;;7.80;99.90;;;;;;5057340;28;20080;-74
2022/04/05 09:58:46;;;;;;;4.20;1.40;;;8.00;99.90;;;;;;5057697;28;20051;-75
2022/04/05 10:01:12;;;;;;;3.80;1.65;;;8.10;99.90;;;;;;5057048;28;20122;-74
2022/04/05 10:03:42;;;;;;;3.20;1.30;;;8.20;99.90;;;;;;5058393;28;20053;-75
2022/04/05 10:06:09;;;;;;;3.53;1.63;;;8.20;99.90;;;;;;5040815;28;20124;-76
2022/04/05 10:08:36;;;;;;;3.03;1.35;;;8.20;99.90;;;;;;5040336;28;20136;-77
2022/04/05 10:11:03;;;;;;;2.80;1.30;;;8.30;99.90;;;;;;5041622;28;20449;-76
2022/04/05 10:13:30;;;;;;;3.05;1.65;;;8.40;99.90;;;;;;5040448;28;20139;-76
2022/04/05 10:15:56;;;;;;;1.80;1.00;;;8.50;99.90;;;;;;5057113;28;20060;-76
2022/04/05 10:18:24;;;;;;;1.70;0.88;;;8.60;99.90;;;;;;5041073;28;20061;-75
2022/04/05 10:20:51;;;;;;;1.55;1.00;;;8.60;99.90;;;;;;5039083;28;20104;-75
2022/04/05 10:23:22;;;;;;;1.63;0.85;;;8.60;99.90;;;;;;5059498;28;20080;-75
2022/04/05 10:25:52;;;;;;;2.22;1.00;;;8.50;99.90;;;;;;5039284;28;20068;-76
2022/04/05 10:28:22;;;;;;;1.77;1.08;;;8.50;99.90;;;;;;5023544;28;20096;-76
2022/04/05 10:31:00;;;;;;;1.80;1.00;;;8.50;99.90;;;;;;5039753;28;20137;-76
2022/04/05 10:33:57;;;;;;;2.22;1.08;;;8.50;99.90;;;;;;5056924;28;20041;-75
2022/04/05 10:36:23;;;;;;;;;;;8.50;99.90;;;;;;5057824;28;20114;-76
2022/04/05 10:39:15;;;;;;;2.23;1.00;;;8.50;99.90;;;;;;5039845;28;19964;-75
2022/04/05 10:41:43;;;;;;;2.60;1.20;;;8.40;99.90;;;;;;5039738;28;20041;-76
2022/04/05 10:44:22;;;;;;;2.83;1.13;;;8.50;99.90;;;;;;5056635;28;20535;-76
2022/04/05 10:46:57;;;;;;;1.77;1.10;;;8.50;99.90;;;;;;5038986;28;20057;-76
2022/04/05 10:49:45;;;;;;;2.85;1.60;;;8.60;99.90;;;;;;5040872;28;20068;-76
2022/04/05 10:52:20;;;;;;;2.78;1.65;;;8.60;99.90;;;;;;5039766;28;20084;-76
2022/04/05 10:54:51;;;;;;;3.10;1.52;;;8.70;99.90;;;;;;5056783;28;20048;-77
2022/04/05 10:57:17;;;;;;;3.13;1.67;;;8.80;99.90;;;;;;5056825;28;20060;-76
2022/04/05 10:59:53;;;;;;;4.10;1.70;;;8.90;99.90;;;;;;5055178;28;20052;-75
2022/04/05 11:02:28;;;;;;;4.25;2.00;;;9.00;99.90;;;;;;5056892;28;20048;-75
2022/04/05 11:05:01;;;;;;;3.17;1.80;;;9.10;99.90;;;;;;5055925;28;20049;-74
2022/04/05 11:07:27;;;;;;;4.60;1.92;;;9.10;99.90;;;;;;5039599;28;20056;-76
2022/04/05 11:09:54;;;;;;;4.13;2.03;;;9.10;99.90;;;;;;5024000;28;20049;-75
2022/04/05 11:12:30;;;;;;;3.95;2.10;;;9.10;99.90;;;;;;5055724;28;20076;-76
2022/04/05 11:14:59;;;;;;;5.00;2.17;;;9.10;99.90;;;;;;5056305;28;20060;-76
2022/04/05 11:17:27;;;;;;;5.15;2.22;;;9.10;99.90;;;;;;5055830;28;20141;-75
2022/04/05 11:19:55;;;;;;;5.25;2.47;;;9.20;99.90;;;;;;5039785;28;20057;-76
2022/04/05 11:22:21;;;;;;;7.28;2.63;;;9.40;99.90;;;;;;5039450;28;20132;-79
2022/04/05 11:25:25;;;;;;;3.55;2.20;;;9.50;99.90;;;;;;5056366;28;20088;-75
2022/04/05 11:27:52;;;;;;;5.47;2.33;;;9.50;99.90;;;;;;5066806;28;20052;-76
2022/04/05 11:30:25;;;;;;;5.70;3.00;;;9.60;99.90;;;;;;5048089;28;20087;-75
2022/04/05 11:33:09;;;;;;;4.93;2.97;;;9.70;99.90;;;;;;5055924;28;20059;-75
2022/04/05 11:35:48;;;;;;;5.18;3.13;;;9.90;99.90;;;;;;5055363;28;20041;-76
2022/04/05 11:38:17;;;;;;;4.97;2.92;;;10.00;99.90;;;;;;5055477;28;20124;-77
2022/04/05 11:40:51;;;;;;;4.63;2.28;;;10.10;99.90;;;;;;5042209;28;20193;-76
2022/04/05 11:43:24;;;;;;;4.72;2.60;;;10.10;99.90;;;;;;5059902;28;20100;-75
2022/04/05 11:45:52;;;;;;;4.50;2.55;;;10.20;99.90;;;;;;5060601;28;20104;-77
2022/04/05 11:48:20;;;;;;;5.13;2.88;;;10.30;99.90;;;;;;5060713;28;20045;-77
2022/04/05 11:50:47;;;;;;;4.22;2.55;;;10.40;99.90;;;;;;5042308;28;20049;-77
2022/04/05 11:53:31;;;;;;;4.25;2.80;;;10.40;99.90;;;;;;5055658;28;20060;-75
2022/04/05 11:56:11;;;;;;;3.42;2.10;;;10.40;99.90;;;;;;5074529;28;20052;-76
2022/04/05 11:58:39;;;;;;;3.05;1.90;;;10.30;99.90;;;;;;5076794;28;20041;-77
2022/04/05 12:01:07;;;;;;;3.00;1.83;;;10.30;99.90;;;;;;5041238;28;20075;-77
2022/04/05 12:03:45;;;;;;;3.92;2.25;;;10.30;99.90;;;;;;5058148;28;20128;-78
2022/04/05 12:06:12;;;;;;;4.10;2.08;;;10.30;99.90;;;;;;5054129;28;20079;-77
2022/04/05 12:08:38;;;;;;;3.33;1.63;;;10.40;99.90;;;;;;5058393;28;20045;-78
2022/04/05 12:11:06;;;;;;;2.90;1.58;;;10.40;99.90;;;;;;5043312;28;20052;-78
2022/04/05 12:13:34;;;;;;;3.13;2.00;;;10.40;99.90;;;;;;5059635;28;20052;-77
2022/04/05 12:16:06;;;;;;;3.25;1.73;;;10.40;99.90;;;;;;5041838;28;20553;-77
2022/04/05 12:18:32;;;;;;;2.78;1.70;;;10.30;99.90;;;;;;5043112;28;20198;-76
2022/04/05 12:21:06;;;;;;;3.92;1.95;;;10.30;99.90;;;;;;5025410;28;20041;-77
2022/04/05 12:23:37;;;;;;;3.83;1.80;;;10.30;99.90;;;;;;5059034;28;20056;-78
2022/04/05 12:26:23;;;;;;;3.45;2.20;;;10.30;99.90;;;;;;5058799;28;20048;-76
2022/04/05 12:28:57;;;;;;;4.18;2.33;;;10.40;99.90;;;;;;5043199;28;20109;-76
2022/04/05 12:31:30;;;;;;;3.97;2.40;;;10.60;99.90;;;;;;5058987;28;20060;-77
2022/04/05 12:40:24;;;;;;;4.80;2.00;;;10.70;99.90;;;;;;5680080;22;19935;-88
2022/04/05 12:42:50;;;;;;;5.00;2.58;;;10.70;99.90;;;;;;5005086;28;20053;-89
2022/04/05 12:45:29;;;;;;;5.28;2.50;;;10.80;99.90;;;;;;5013723;28;20092;-80
2022/04/05 12:47:54;;;;;;;3.80;2.25;;;10.80;99.90;;;;;;5016174;28;20046;-83
2022/04/05 12:50:20;;;;;;;4.03;2.47;;;10.70;99.90;;;;;;5015164;28;20041;-82
2022/04/05 12:52:46;;;;;;;4.03;1.90;;;10.70;99.90;;;;;;5014179;28;20041;-81
2022/04/05 12:55:18;;;;;;;5.15;2.53;;;10.60;99.90;;;;;;5015575;28;20081;-82
2022/04/05 12:57:51;;;;;;;4.15;2.47;;;10.60;99.90;;;;;;5015425;28;20046;-83
2022/04/05 13:00:18;;;;;;;5.00;2.53;;;10.50;99.90;;;;;;5015524;28;20041;-80
2022/04/05 13:02:54;;;;;;;7.85;2.95;;;10.50;99.90;;;;;;5014985;28;20046;-81
2022/04/05 13:08:30;;;;;;;4.65;2.75;;;10.50;99.90;;;;;;5016068;28;20061;-80